Time;durP1;ratioP1;P1;durP2;ratioP2;P2;SDS_P1;SDS_P2;PMS_P1;PMS_P2;Temp;Humidity;BMP_temperature;BMP_pressure;BME280_temperature;BME280_humidity;BME280_pressure;Samples;Min_cycle;Max_cycle;Signal;HPM_P1;HPM_P2
2022/06/06 00:01:12;;;;;;;10.10;3.63;;;;;;;;;;4814678;29;20495;-79
2022/06/06 00:03:41;;;;;;;7.80;3.53;;;;;;;;;;4830012;29;20574;-79
2022/06/06 00:06:20;;;;;;;4.80;3.47;;;;;;;;;;4825044;29;20385;-79
2022/06/06 00:08:48;;;;;;;8.35;3.20;;;;;;;;;;4803534;29;20521;-79
2022/06/06 00:11:16;;;;;;;6.32;3.28;;;;;;;;;;4823156;29;20066;-79
2022/06/06 00:13:44;;;;;;;4.38;2.80;;;;;;;;;;4833876;29;20499;-77
2022/06/06 00:16:13;;;;;;;13.50;3.40;;;;;;;;;;4811259;29;20129;-78
2022/06/06 00:18:43;;;;;;;5.20;3.38;;;;;;;;;;4824169;29;20121;-78
2022/06/06 00:21:12;;;;;;;7.40;2.95;;;;;;;;;;4824393;29;20050;-78
2022/06/06 00:23:41;;;;;;;6.38;3.03;;;;;;;;;;4822259;29;20123;-79
2022/06/06 00:26:10;;;;;;;6.88;3.67;;;;;;;;;;4808125;29;20045;-78
2022/06/06 00:28:39;;;;;;;6.93;3.28;;;;;;;;;;4830385;29;20125;-79
2022/06/06 00:36:40;;;;;;;8.90;3.50;;;;;;;;;;4827307;29;20077;-79
2022/06/06 00:39:09;;;;;;;8.10;3.30;;;;;;;;;;4828184;29;20590;-79
2022/06/06 00:41:40;;;;;;;5.75;3.20;;;;;;;;;;4822989;29;20097;-79
2022/06/06 00:44:09;;;;;;;6.10;3.20;;;;;;;;;;4823250;29;20487;-79
2022/06/06 00:46:40;;;;;;;5.55;2.90;;;;;;;;;;4824571;29;20077;-79
2022/06/06 00:49:12;;;;;;;8.25;3.78;;;;;;;;;;4824186;29;20070;-78
2022/06/06 00:51:40;;;;;;;5.60;3.15;;;;;;;;;;4806615;29;20401;-78
2022/06/06 00:54:07;;;;;;;6.82;3.30;;;;;;;;;;4823581;29;20509;-78
2022/06/06 00:56:38;;;;;;;9.15;3.88;;;;;;;;;;4826635;29;20127;-79
2022/06/06 00:59:32;;;;;;;7.45;3.60;;;;;;;;;;4837221;29;20081;-79
2022/06/06 01:02:00;;;;;;;7.97;3.10;;;;;;;;;;4805932;29;20061;-79
2022/06/06 01:04:29;;;;;;;4.20;2.97;;;;;;;;;;4820626;29;20100;-80
2022/06/06 01:06:57;;;;;;;4.50;3.25;;;;;;;;;;4820247;29;20527;-79
2022/06/06 01:09:25;;;;;;;4.30;2.97;;;;;;;;;;4822972;29;20078;-80
2022/06/06 01:11:55;;;;;;;4.80;3.45;;;;;;;;;;4824355;29;20481;-79
2022/06/06 01:14:24;;;;;;;6.25;3.85;;;;;;;;;;4818816;29;20129;-80
2022/06/06 01:17:10;;;;;;;7.30;3.35;;;;;;;;;;4817851;29;20114;-80
2022/06/06 01:19:54;;;;;;;4.93;3.00;;;;;;;;;;4802484;29;20578;-80
2022/06/06 01:22:40;;;;;;;8.40;3.90;;;;;;;;;;4817814;29;20138;-79
2022/06/06 01:25:17;;;;;;;8.73;4.35;;;;;;;;;;4819161;29;20047;-79
2022/06/06 01:27:52;;;;;;;5.10;3.30;;;;;;;;;;4820840;29;20599;-79
2022/06/06 01:30:22;;;;;;;7.97;3.95;;;;;;;;;;4823268;29;20050;-79
2022/06/06 01:32:52;;;;;;;8.45;4.40;;;;;;;;;;4823018;29;20058;-79
2022/06/06 01:35:24;;;;;;;6.22;3.85;;;;;;;;;;4826213;29;20069;-79
2022/06/06 01:37:52;;;;;;;9.20;4.45;;;;;;;;;;4824716;29;20065;-79
2022/06/06 01:40:19;;;;;;;7.55;4.35;;;;;;;;;;4821284;29;20080;-79
2022/06/06 01:42:47;;;;;;;9.95;3.83;;;;;;;;;;4818476;29;20057;-81
2022/06/06 01:45:15;;;;;;;9.70;3.55;;;;;;;;;;4818696;29;20133;-79
2022/06/06 01:47:47;;;;;;;9.55;3.83;;;;;;;;;;4819299;29;20042;-80
2022/06/06 01:50:15;;;;;;;7.47;4.05;;;;;;;;;;4818553;29;20099;-80
2022/06/06 01:52:55;;;;;;;8.15;4.88;;;;;;;;;;4818897;29;20078;-79
2022/06/06 01:55:25;;;;;;;8.32;4.30;;;;;;;;;;4802659;29;20492;-79
2022/06/06 01:57:53;;;;;;;7.78;4.40;;;;;;;;;;4789290;29;20157;-80
2022/06/06 02:00:24;;;;;;;9.88;4.97;;;;;;;;;;4821118;29;20167;-80
2022/06/06 02:02:52;;;;;;;10.25;5.93;;;;;;;;;;4820877;29;20507;-80
2022/06/06 02:05:20;;;;;;;8.32;5.97;;;;;;;;;;4805147;29;20057;-80
2022/06/06 02:07:47;;;;;;;11.40;5.70;;;;;;;;;;4821060;29;20050;-80
2022/06/06 02:10:16;;;;;;;11.30;6.50;;;;;;;;;;4788028;29;20568;-80
2022/06/06 02:12:44;;;;;;;16.33;7.03;;;;;;;;;;4804931;29;20081;-80
2022/06/06 02:15:13;;;;;;;13.10;7.00;;;;;;;;;;4821076;29;20580;-80
2022/06/06 02:17:41;;;;;;;10.20;6.72;;;;;;;;;;4813202;29;20389;-80
2022/06/06 02:20:09;;;;;;;13.63;7.47;;;;;;;;;;4804610;29;20054;-80
2022/06/06 02:22:37;;;;;;;13.20;7.57;;;;;;;;;;4821872;29;20051;-80
2022/06/06 02:25:06;;;;;;;14.75;8.05;;;;;;;;;;4805565;29;20076;-80
2022/06/06 02:27:34;;;;;;;11.35;7.80;;;;;;;;;;4805265;29;20042;-80
2022/06/06 02:30:02;;;;;;;11.40;7.30;;;;;;;;;;4821234;29;20074;-80
2022/06/06 02:32:30;;;;;;;10.68;7.53;;;;;;;;;;4821127;29;20043;-80
2022/06/06 02:34:57;;;;;;;12.23;6.90;;;;;;;;;;4821245;29;20137;-80
2022/06/06 02:37:24;;;;;;;10.20;6.43;;;;;;;;;;4804286;29;20050;-80
2022/06/06 02:39:52;;;;;;;11.50;7.20;;;;;;;;;;4818628;29;20066;-80
2022/06/06 02:42:19;;;;;;;12.95;7.90;;;;;;;;;;4807867;29;20197;-80
2022/06/06 02:44:48;;;;;;;10.00;7.28;;;;;;;;;;4831747;29;20054;-80
2022/06/06 02:47:16;;;;;;;11.60;7.45;;;;;;;;;;4808200;29;20058;-80
2022/06/06 02:49:43;;;;;;;9.90;6.63;;;;;;;;;;4822292;29;20125;-81
2022/06/06 02:52:10;;;;;;;10.40;6.63;;;;;;;;;;4821880;29;20537;-80
2022/06/06 02:54:38;;;;;;;10.25;7.53;;;;;;;;;;4804319;29;20054;-80
2022/06/06 02:57:05;;;;;;;9.90;7.53;;;;;;;;;;4785662;29;20569;-80
2022/06/06 02:59:34;;;;;;;18.38;9.55;;;;;;;;;;4802777;29;20189;-81
2022/06/06 03:02:02;;;;;;;12.65;8.52;;;;;;;;;;4820154;29;20759;-80
2022/06/06 03:04:30;;;;;;;12.65;7.63;;;;;;;;;;4803911;29;20126;-80
2022/06/06 03:07:16;;;;;;;13.25;8.52;;;;;;;;;;4820645;29;20075;-80
2022/06/06 03:09:53;;;;;;;15.52;8.13;;;;;;;;;;4820401;29;20123;-80
2022/06/06 03:12:23;;;;;;;13.00;8.55;;;;;;;;;;4820210;29;20078;-80
2022/06/06 03:15:02;;;;;;;13.18;7.25;;;;;;;;;;4805764;29;20061;-80
2022/06/06 03:23:43;;;;;;;14.50;8.40;;;;;;;;;;4801859;29;20527;-80
2022/06/06 03:26:15;;;;;;;19.60;9.75;;;;;;;;;;4812813;29;20090;-80
2022/06/06 03:28:42;;;;;;;14.02;8.15;;;;;;;;;;4821707;29;20452;-80
2022/06/06 03:31:20;;;;;;;12.90;8.38;;;;;;;;;;4805551;29;20317;-80
2022/06/06 03:33:47;;;;;;;11.45;8.00;;;;;;;;;;4805621;29;20061;-80
2022/06/06 03:36:20;;;;;;;11.82;7.88;;;;;;;;;;4804524;29;20575;-80
2022/06/06 03:38:54;;;;;;;11.60;7.82;;;;;;;;;;4804117;29;20051;-80
2022/06/06 03:41:43;;;;;;;12.57;8.05;;;;;;;;;;4804442;29;20057;-80
2022/06/06 03:44:20;;;;;;;12.50;8.65;;;;;;;;;;4820717;29;20133;-80
2022/06/06 03:46:53;;;;;;;11.50;8.10;;;;;;;;;;4820249;29;20050;-80
2022/06/06 03:49:38;;;;;;;12.00;8.27;;;;;;;;;;4801024;29;20050;-80
2022/06/06 03:52:24;;;;;;;12.15;8.48;;;;;;;;;;4819838;29;20042;-80
2022/06/06 03:55:07;;;;;;;12.48;7.75;;;;;;;;;;4820179;29;20078;-80
2022/06/06 03:57:35;;;;;;;9.48;6.65;;;;;;;;;;4818769;29;20070;-80
2022/06/06 04:00:11;;;;;;;5.85;5.30;;;;;;;;;;4818634;29;20058;-81
2022/06/06 04:02:41;;;;;;;10.73;6.13;;;;;;;;;;4802341;29;20081;-81
2022/06/06 04:05:11;;;;;;;13.15;8.57;;;;;;;;;;4819860;29;20081;-81
2022/06/06 04:07:39;;;;;;;12.57;7.38;;;;;;;;;;4820878;29;20092;-80
2022/06/06 04:10:07;;;;;;;8.98;7.28;;;;;;;;;;4813201;29;20114;-80
2022/06/06 04:12:47;;;;;;;8.35;6.93;;;;;;;;;;4801875;29;20422;-80
2022/06/06 04:15:14;;;;;;;8.75;6.93;;;;;;;;;;4819609;29;20126;-80
2022/06/06 04:17:56;;;;;;;9.32;7.30;;;;;;;;;;4822779;29;20415;-80
2022/06/06 04:20:44;;;;;;;7.85;5.38;;;;;;;;;;4790195;29;20054;-82
2022/06/06 04:23:11;;;;;;;8.88;5.97;;;;;;;;;;4786540;29;20063;-82
2022/06/06 04:25:41;;;;;;;7.65;6.18;;;;;;;;;;4831938;29;20074;-80
2022/06/06 04:28:24;;;;;;;8.85;5.85;;;;;;;;;;4829349;29;20051;-81
2022/06/06 04:30:59;;;;;;;8.23;6.10;;;;;;;;;;4793709;29;20089;-80
2022/06/06 04:33:36;;;;;;;8.73;7.28;;;;;;;;;;4802600;29;20115;-80
2022/06/06 04:36:12;;;;;;;8.43;6.43;;;;;;;;;;4818322;29;20054;-80
2022/06/06 04:38:55;;;;;;;11.07;6.95;;;;;;;;;;4801221;29;20105;-80
2022/06/06 04:41:27;;;;;;;7.00;5.90;;;;;;;;;;4802024;29;20171;-80
2022/06/06 04:44:10;;;;;;;10.65;6.85;;;;;;;;;;4819171;29;20069;-82
2022/06/06 04:46:49;;;;;;;6.25;5.00;;;;;;;;;;4801554;29;20145;-81
2022/06/06 04:49:17;;;;;;;9.35;5.35;;;;;;;;;;4817276;29;20050;-80
2022/06/06 04:51:45;;;;;;;10.60;5.60;;;;;;;;;;4820899;29;20134;-80
2022/06/06 04:54:14;;;;;;;6.47;5.20;;;;;;;;;;4828249;29;20050;-80
2022/06/06 04:56:43;;;;;;;5.28;3.92;;;;;;;;;;4812688;29;20127;-80
2022/06/06 04:59:11;;;;;;;8.25;4.97;;;;;;;;;;4804100;29;20050;-80
2022/06/06 05:01:39;;;;;;;7.05;4.97;;;;;;;;;;4817333;29;20053;-80
2022/06/06 05:04:06;;;;;;;10.30;5.50;;;;;;;;;;4827198;29;20169;-80
2022/06/06 05:06:49;;;;;;;6.70;4.13;;;;;;;;;;4816362;29;20053;-80
2022/06/06 05:09:24;;;;;;;8.70;5.00;;;;;;;;;;4819843;29;20051;-81
2022/06/06 05:11:54;;;;;;;8.95;4.60;;;;;;;;;;4818261;29;20534;-79
2022/06/06 05:14:22;;;;;;;7.93;5.15;;;;;;;;;;4786823;29;20054;-79
2022/06/06 05:16:57;;;;;;;10.98;5.63;;;;;;;;;;4798985;29;20061;-79
2022/06/06 05:19:41;;;;;;;6.45;4.25;;;;;;;;;;4818429;29;20061;-79
2022/06/06 05:22:20;;;;;;;8.15;4.45;;;;;;;;;;4818744;29;20461;-80
2022/06/06 05:24:56;;;;;;;7.03;5.13;;;;;;;;;;4817498;29;20550;-80
2022/06/06 05:27:34;;;;;;;10.15;5.22;;;;;;;;;;4798946;29;20440;-80
2022/06/06 05:30:07;;;;;;;9.30;4.88;;;;;;;;;;4792594;29;20050;-79
2022/06/06 05:32:57;;;;;;;6.70;5.18;;;;;;;;;;4824846;29;20035;-79
2022/06/06 05:35:32;;;;;;;6.85;5.28;;;;;;;;;;4821964;29;20050;-80
2022/06/06 05:38:26;;;;;;;10.13;6.13;;;;;;;;;;4799170;29;20504;-80
2022/06/06 05:40:55;;;;;;;8.73;5.47;;;;;;;;;;4825217;29;20061;-80
2022/06/06 05:43:45;;;;;;;7.07;5.20;;;;;;;;;;4830759;29;20046;-80
2022/06/06 05:46:52;;;;;;;6.00;5.28;;;;;;;;;;4793382;29;20046;-80
2022/06/06 05:49:22;;;;;;;6.18;4.32;;;;;;;;;;4752185;30;20109;-79
2022/06/06 05:52:08;;;;;;;9.20;5.55;;;;;;;;;;4750598;30;20047;-79
2022/06/06 05:54:39;;;;;;;7.35;5.32;;;;;;;;;;4807193;29;20054;-81
2022/06/06 05:57:06;;;;;;;8.23;5.47;;;;;;;;;;4803634;29;20462;-82
2022/06/06 05:59:52;;;;;;;7.45;5.57;;;;;;;;;;4816279;29;20085;-80
2022/06/06 06:02:20;;;;;;;5.93;5.22;;;;;;;;;;4815384;29;20158;-82
2022/06/06 06:04:59;;;;;;;7.90;5.68;;;;;;;;;;4817640;29;20064;-80
2022/06/06 06:07:30;;;;;;;11.55;4.72;;;;;;;;;;4811965;29;20043;-81
2022/06/06 06:10:07;;;;;;;6.77;4.57;;;;;;;;;;4834036;29;20133;-81
2022/06/06 06:12:41;;;;;;;5.38;4.88;;;;;;;;;;4808987;29;20233;-82
2022/06/06 06:15:29;;;;;;;6.75;5.05;;;;;;;;;;4811661;29;20389;-80
2022/06/06 06:17:57;;;;;;;10.52;5.07;;;;;;;;;;4823375;29;20150;-80
2022/06/06 06:20:25;;;;;;;4.90;4.45;;;;;;;;;;4820509;29;20400;-80
2022/06/06 06:23:07;;;;;;;5.07;4.57;;;;;;;;;;4822467;29;20058;-80
2022/06/06 06:25:36;;;;;;;5.30;4.50;;;;;;;;;;4824702;29;20526;-79
2022/06/06 06:28:05;;;;;;;6.00;5.22;;;;;;;;;;4823295;29;20042;-79
2022/06/06 06:30:42;;;;;;;4.90;4.43;;;;;;;;;;4837450;29;20069;-80
2022/06/06 06:33:18;;;;;;;6.35;5.20;;;;;;;;;;4830299;29;20129;-80
2022/06/06 06:35:58;;;;;;;6.15;4.55;;;;;;;;;;4833152;29;20370;-81
2022/06/06 06:38:25;;;;;;;6.40;4.72;;;;;;;;;;4795816;29;20050;-80
2022/06/06 06:40:57;;;;;;;4.97;4.43;;;;;;;;;;4815268;29;20097;-80
2022/06/06 06:43:27;;;;;;;5.93;4.10;;;;;;;;;;4806297;29;20042;-80
2022/06/06 06:46:03;;;;;;;4.40;4.00;;;;;;;;;;4795281;29;20060;-81
2022/06/06 06:48:30;;;;;;;5.38;4.10;;;;;;;;;;4821592;29;20046;-80
2022/06/06 06:51:14;;;;;;;7.07;4.07;;;;;;;;;;4810780;29;20121;-80
2022/06/06 06:53:51;;;;;;;5.88;3.95;;;;;;;;;;4824490;29;20507;-81
2022/06/06 06:56:51;;;;;;;4.93;4.10;;;;;;;;;;4823445;29;20103;-80
2022/06/06 06:59:24;;;;;;;4.50;4.10;;;;;;;;;;4767944;29;20135;-80
2022/06/06 07:11:01;;;;;;;6.53;4.45;;;;;;;;;;4782834;29;20075;-80
2022/06/06 07:13:59;;;;;;;5.38;4.25;;;;;;;;;;4817413;29;20078;-80
2022/06/06 07:16:36;;;;;;;5.55;4.80;;;;;;;;;;4737394;29;20734;-83
2022/06/06 07:19:24;;;;;;;4.70;4.10;;;;;;;;;;4815821;29;20161;-80
2022/06/06 07:21:53;;;;;;;5.95;4.03;;;;;;;;;;4792126;29;20126;-81
2022/06/06 07:24:23;;;;;;;4.50;4.00;;;;;;;;;;4826267;29;20050;-80
2022/06/06 07:26:51;;;;;;;4.43;4.05;;;;;;;;;;4830727;29;20420;-80
2022/06/06 07:29:20;;;;;;;6.10;4.57;;;;;;;;;;4827363;29;20077;-79
2022/06/06 07:32:16;;;;;;;7.47;4.55;;;;;;;;;;4827001;29;20145;-80
2022/06/06 07:38:16;;;;;;;4.82;4.43;;;;;;;;;;4807923;29;20051;-78
2022/06/06 07:40:47;;;;;;;4.88;4.38;;;;;;;;;;4815380;29;20053;-79
2022/06/06 07:43:33;;;;;;;4.85;4.40;;;;;;;;;;4821221;29;20050;-79
2022/06/06 07:46:11;;;;;;;7.53;3.85;;;;;;;;;;4819557;29;20370;-79
2022/06/06 07:48:54;;;;;;;4.95;3.90;;;;;;;;;;4834113;29;20050;-78
2022/06/06 07:51:44;;;;;;;7.95;3.90;;;;;;;;;;4804349;29;20061;-79
2022/06/06 07:54:32;;;;;;;4.43;3.70;;;;;;;;;;4748807;29;20133;-79
2022/06/06 07:57:09;;;;;;;5.25;3.25;;;;;;;;;;4803517;29;20054;-80
2022/06/06 08:00:04;;;;;;;3.65;3.35;;;;;;;;;;4809884;29;20133;-79
2022/06/06 08:02:57;;;;;;;4.93;3.22;;;;;;;;;;4803659;29;20056;-80
2022/06/06 08:05:43;;;;;;;6.22;3.67;;;;;;;;;;4827293;29;20058;-79
2022/06/06 08:08:30;;;;;;;3.40;3.20;;;;;;;;;;4817917;29;20054;-78
2022/06/06 08:11:33;;;;;;;4.57;3.50;;;;;;;;;;4825700;29;20077;-79
2022/06/06 08:14:03;;;;;;;4.63;3.35;;;;;;;;;;4788047;29;20141;-78
2022/06/06 08:16:54;;;;;;;4.63;3.00;;;;;;;;;;4786989;29;20050;-79
2022/06/06 08:19:32;;;;;;;5.80;2.97;;;;;;;;;;4810726;29;20082;-78
2022/06/06 08:22:01;;;;;;;2.90;2.70;;;;;;;;;;4816353;29;20050;-78
2022/06/06 08:24:31;;;;;;;2.92;2.72;;;;;;;;;;4787433;29;20481;-79
2022/06/06 08:27:19;;;;;;;3.40;2.58;;;;;;;;;;4789499;29;20449;-79
2022/06/06 08:29:48;;;;;;;5.32;2.80;;;;;;;;;;4802436;29;20516;-79
2022/06/06 08:32:16;;;;;;;4.03;2.65;;;;;;;;;;4818079;29;20103;-81
2022/06/06 08:34:44;;;;;;;3.20;2.60;;;;;;;;;;4820574;29;20065;-81
2022/06/06 08:37:30;;;;;;;3.17;2.90;;;;;;;;;;4803891;29;20050;-81
2022/06/06 08:40:16;;;;;;;2.92;2.58;;;;;;;;;;4833138;29;20464;-79
2022/06/06 08:43:04;;;;;;;2.80;2.70;;;;;;;;;;4816452;29;20516;-80
2022/06/06 08:45:43;;;;;;;4.70;2.30;;;;;;;;;;4820903;29;20095;-79
2022/06/06 08:48:26;;;;;;;5.35;2.40;;;;;;;;;;4811732;29;20134;-80
2022/06/06 08:51:02;;;;;;;2.90;2.38;;;;;;;;;;4822062;29;20389;-80
2022/06/06 08:53:38;;;;;;;2.70;2.50;;;;;;;;;;4803742;29;20124;-81
2022/06/06 08:56:25;;;;;;;3.20;2.75;;;;;;;;;;4822718;29;20058;-81
2022/06/06 08:58:55;;;;;;;3.15;2.40;;;;;;;;;;4821835;29;20125;-80
2022/06/06 09:02:06;;;;;;;5.97;2.75;;;;;;;;;;4805189;29;20054;-80
2022/06/06 09:04:50;;;;;;;2.53;2.05;;;;;;;;;;4806827;29;20512;-80
2022/06/06 09:07:20;;;;;;;3.95;2.70;;;;;;;;;;4806248;29;20103;-80
2022/06/06 09:10:09;;;;;;;3.20;2.50;;;;;;;;;;4822994;29;20103;-80
2022/06/06 09:12:54;;;;;;;2.60;2.40;;;;;;;;;;4795108;29;20249;-80
2022/06/06 09:15:44;;;;;;;2.03;1.92;;;;;;;;;;4821620;29;20073;-80
2022/06/06 09:18:12;;;;;;;2.67;2.10;;;;;;;;;;4807676;29;20046;-80
2022/06/06 09:20:55;;;;;;;2.60;2.10;;;;;;;;;;4824383;29;20057;-82
2022/06/06 09:23:42;;;;;;;8.48;7.85;;;;;;;;;;4807076;29;20465;-81
2022/06/06 09:26:28;;;;;;;2.97;2.35;;;;;;;;;;4809135;29;20058;-80
2022/06/06 09:29:07;;;;;;;3.17;2.20;;;;;;;;;;4837935;29;20066;-80
2022/06/06 09:31:53;;;;;;;3.22;2.20;;;;;;;;;;4826668;29;20042;-80
2022/06/06 09:34:33;;;;;;;2.22;2.00;;;;;;;;;;4810494;29;20054;-81
2022/06/06 09:37:08;;;;;;;4.50;2.03;;;;;;;;;;4824833;29;20078;-81
2022/06/06 09:39:44;;;;;;;4.30;2.30;;;;;;;;;;4795892;29;20051;-81
2022/06/06 09:42:30;;;;;;;4.60;2.00;;;;;;;;;;4839091;29;20081;-81
2022/06/06 09:44:58;;;;;;;3.00;2.15;;;;;;;;;;4822588;29;20058;-81
2022/06/06 09:47:28;;;;;;;2.38;2.00;;;;;;;;;;4807544;29;20065;-81
2022/06/06 09:50:14;;;;;;;2.53;2.10;;;;;;;;;;4823170;29;20538;-80
2022/06/06 09:52:45;;;;;;;2.33;2.10;;;;;;;;;;4847132;29;20070;-80
2022/06/06 10:01:09;;;;;;;2.65;2.17;;;;;;;;;;4807942;29;20161;-80
2022/06/06 10:03:49;;;;;;;3.17;2.13;;;;;;;;;;4812510;29;20082;-80
2022/06/06 10:06:35;;;;;;;2.42;2.08;;;;;;;;;;4818353;29;20399;-80
2022/06/06 10:09:21;;;;;;;3.75;2.10;;;;;;;;;;4806110;29;20051;-81
2022/06/06 10:12:07;;;;;;;2.50;2.22;;;;;;;;;;4826022;29;20074;-81
2022/06/06 10:14:55;;;;;;;2.40;2.20;;;;;;;;;;4826578;29;20043;-81
2022/06/06 10:17:41;;;;;;;2.65;2.15;;;;;;;;;;4794831;29;20058;-80
2022/06/06 10:20:21;;;;;;;2.75;2.10;;;;;;;;;;4825088;29;20457;-81
2022/06/06 10:22:55;;;;;;;5.40;2.03;;;;;;;;;;4832151;29;20046;-81
2022/06/06 10:25:41;;;;;;;1.85;1.75;;;;;;;;;;4832786;29;20050;-81
2022/06/06 10:28:12;;;;;;;2.10;1.90;;;;;;;;;;4813620;29;20042;-81
2022/06/06 10:30:55;;;;;;;2.30;2.10;;;;;;;;;;4809632;29;20123;-80
2022/06/06 10:33:41;;;;;;;4.75;2.10;;;;;;;;;;4824715;29;20307;-80
2022/06/06 10:36:18;;;;;;;3.67;2.20;;;;;;;;;;4823396;29;20043;-80
2022/06/06 10:38:57;;;;;;;2.88;1.83;;;;;;;;;;4822564;29;20569;-80
2022/06/06 10:41:52;;;;;;;3.20;2.10;;;;;;;;;;4824360;29;20544;-81
2022/06/06 10:44:56;;;;;;;2.30;1.92;;;;;;;;;;4807177;29;20056;-80
2022/06/06 10:47:27;;;;;;;1.92;1.80;;;;;;;;;;4821829;29;20066;-80
2022/06/06 10:50:01;;;;;;;1.80;1.70;;;;;;;;;;4826972;29;20078;-80
2022/06/06 10:52:40;;;;;;;2.40;1.90;;;;;;;;;;4823451;29;20050;-80
2022/06/06 10:55:20;;;;;;;2.67;2.20;;;;;;;;;;4827560;29;20080;-80
2022/06/06 10:57:52;;;;;;;3.27;1.57;;;;;;;;;;4823753;29;20114;-80
2022/06/06 11:00:19;;;;;;;;;;;;;;;;;;4825017;29;20058;-81
2022/06/06 11:02:59;;;;;;;2.05;1.88;;;;;;;;;;4811420;29;19956;-81
2022/06/06 11:05:34;;;;;;;2.97;1.77;;;;;;;;;;4806729;29;20119;-80
2022/06/06 11:08:22;;;;;;;2.00;1.80;;;;;;;;;;4824693;29;20121;-81
2022/06/06 11:11:09;;;;;;;2.25;1.70;;;;;;;;;;4827297;29;20042;-81
2022/06/06 11:13:43;;;;;;;2.40;1.77;;;;;;;;;;4795249;29;20053;-80
2022/06/06 11:16:29;;;;;;;2.15;1.50;;;;;;;;;;4840403;29;20097;-80
2022/06/06 11:19:23;;;;;;;2.25;1.77;;;;;;;;;;4824560;29;20047;-80
2022/06/06 11:22:06;;;;;;;2.53;1.88;;;;;;;;;;4820227;29;20058;-81
2022/06/06 11:24:34;;;;;;;1.63;1.52;;;;;;;;;;4810528;29;20451;-79
2022/06/06 11:27:01;;;;;;;2.35;1.80;;;;;;;;;;4807215;29;20582;-79
2022/06/06 11:29:34;;;;;;;3.13;1.73;;;;;;;;;;4823916;29;20042;-80
2022/06/06 11:32:08;;;;;;;1.85;1.50;;;;;;;;;;4811672;29;20050;-80
2022/06/06 11:34:51;;;;;;;2.25;1.50;;;;;;;;;;4809357;29;20523;-81
2022/06/06 11:37:24;;;;;;;2.00;1.70;;;;;;;;;;4826389;29;20315;-80
2022/06/06 11:40:03;;;;;;;2.70;1.65;;;;;;;;;;4826353;29;20491;-80
2022/06/06 11:42:39;;;;;;;1.83;1.70;;;;;;;;;;4820414;29;20069;-80
2022/06/06 11:45:25;;;;;;;2.30;1.52;;;;;;;;;;4840929;29;20050;-80
2022/06/06 11:48:01;;;;;;;1.30;1.30;;;;;;;;;;4839969;29;20075;-80
2022/06/06 11:50:45;;;;;;;3.72;1.65;;;;;;;;;;4825192;29;20042;-80
2022/06/06 11:53:39;;;;;;;1.70;1.60;;;;;;;;;;4820166;29;20056;-80
2022/06/06 11:56:23;;;;;;;1.98;1.73;;;;;;;;;;4807944;29;20042;-80
2022/06/06 11:59:15;;;;;;;1.60;1.50;;;;;;;;;;4821884;29;20133;-80
2022/06/06 12:02:06;;;;;;;4.20;1.70;;;;;;;;;;4805670;29;20058;-79
2022/06/06 12:04:33;;;;;;;;;;;;;;;;;;4814538;29;20054;-80
2022/06/06 12:07:12;;;;;;;2.35;1.50;;;;;;;;;;4803550;29;20487;-80
2022/06/06 12:09:46;;;;;;;3.58;2.13;;;;;;;;;;4817970;29;20094;-80
2022/06/06 12:12:13;;;;;;;;;;;;;;;;;;4820399;29;20069;-80
2022/06/06 12:14:40;;;;;;;;;;;;;;;;;;4807611;29;20430;-80
2022/06/06 12:17:20;;;;;;;1.80;1.50;;;;;;;;;;4789051;29;20421;-80
2022/06/06 12:19:50;;;;;;;1.67;1.58;;;;;;;;;;4838995;29;20382;-80
2022/06/06 12:22:36;;;;;;;2.55;1.45;;;;;;;;;;4820826;29;20050;-80
2022/06/06 12:25:25;;;;;;;3.03;1.50;;;;;;;;;;4811528;29;20455;-80
2022/06/06 12:28:15;;;;;;;1.33;1.23;;;;;;;;;;4820338;29;20043;-80
2022/06/06 12:30:46;;;;;;;1.20;1.10;;;;;;;;;;4829256;29;20535;-80
2022/06/06 12:33:18;;;;;;;2.88;1.48;;;;;;;;;;4833230;29;20062;-80
2022/06/06 12:35:46;;;;;;;3.70;1.38;;;;;;;;;;4804110;29;20070;-80
2022/06/06 12:38:20;;;;;;;1.45;1.35;;;;;;;;;;4821271;29;20145;-80
2022/06/06 12:41:14;;;;;;;2.08;1.40;;;;;;;;;;4819637;29;20050;-80
2022/06/06 12:43:44;;;;;;;1.60;1.40;;;;;;;;;;4786933;29;20061;-79
2022/06/06 12:46:32;;;;;;;2.08;1.30;;;;;;;;;;4831150;29;20046;-80
2022/06/06 12:49:13;;;;;;;3.22;1.35;;;;;;;;;;4805982;29;20042;-80
2022/06/06 12:51:44;;;;;;;1.55;1.30;;;;;;;;;;4820279;29;20058;-80
2022/06/06 12:54:11;;;;;;;2.30;1.40;;;;;;;;;;4819258;29;20057;-80
2022/06/06 12:56:54;;;;;;;1.70;1.40;;;;;;;;;;4818186;29;20074;-80
2022/06/06 12:59:22;;;;;;;1.65;1.33;;;;;;;;;;4818635;29;20072;-80
2022/06/06 13:01:49;;;;;;;1.73;1.45;;;;;;;;;;4802822;29;20118;-80
2022/06/06 13:04:21;;;;;;;1.90;1.35;;;;;;;;;;4819644;29;20066;-80
2022/06/06 13:06:51;;;;;;;2.33;1.42;;;;;;;;;;4809090;29;20531;-80
2022/06/06 13:09:22;;;;;;;3.58;1.50;;;;;;;;;;4825117;29;20085;-80
2022/06/06 13:11:52;;;;;;;1.52;1.42;;;;;;;;;;4824750;29;20328;-80
2022/06/06 13:14:20;;;;;;;4.88;1.50;;;;;;;;;;4808630;29;20038;-81
2022/06/06 13:16:50;;;;;;;1.60;1.48;;;;;;;;;;4822295;29;20141;-80
2022/06/06 13:19:30;;;;;;;1.38;1.20;;;;;;;;;;4822469;29;20039;-80
2022/06/06 13:22:10;;;;;;;3.15;1.40;;;;;;;;;;4821964;29;20050;-80
2022/06/06 13:25:10;;;;;;;1.77;1.13;;;;;;;;;;4823440;29;20465;-80
2022/06/06 13:27:40;;;;;;;1.45;1.15;;;;;;;;;;4816176;29;20057;-79
2022/06/06 13:30:17;;;;;;;4.68;1.20;;;;;;;;;;4821980;29;20046;-80
2022/06/06 13:33:19;;;;;;;3.40;1.25;;;;;;;;;;4805910;29;20551;-79
2022/06/06 13:39:41;;;;;;;2.05;1.25;;;;;;;;;;4794760;29;20150;-89
2022/06/06 13:43:04;;;;;;;1.15;1.15;;;;;;;;;;4790255;29;20065;-80
2022/06/06 13:45:40;;;;;;;0.90;0.90;;;;;;;;;;4803165;29;20065;-81
2022/06/06 13:48:23;;;;;;;3.35;1.00;;;;;;;;;;4805374;29;20046;-79
2022/06/06 13:51:03;;;;;;;2.38;1.15;;;;;;;;;;4809321;29;20404;-79
2022/06/06 13:53:31;;;;;;;1.90;1.20;;;;;;;;;;4803793;29;20055;-80
2022/06/06 13:56:17;;;;;;;1.60;1.30;;;;;;;;;;4787647;29;20276;-79
2022/06/06 13:59:05;;;;;;;4.43;1.00;;;;;;;;;;4787889;29;20058;-80
2022/06/06 14:01:41;;;;;;;1.20;1.10;;;;;;;;;;4808393;29;20114;-79
2022/06/06 14:04:22;;;;;;;1.48;1.25;;;;;;;;;;4802929;29;20091;-80
2022/06/06 14:06:49;;;;;;;1.77;1.08;;;;;;;;;;4798370;29;20500;-81
2022/06/06 14:09:17;;;;;;;1.20;1.10;;;;;;;;;;4786369;29;20137;-80
2022/06/06 14:11:48;;;;;;;1.30;1.20;;;;;;;;;;4788425;29;20086;-80
2022/06/06 14:14:21;;;;;;;2.70;1.20;;;;;;;;;;4798469;29;20047;-80
2022/06/06 14:17:10;;;;;;;1.77;1.20;;;;;;;;;;4802317;29;20050;-82
2022/06/06 14:19:49;;;;;;;1.10;1.00;;;;;;;;;;4789293;29;20054;-80
2022/06/06 14:22:26;;;;;;;3.90;1.20;;;;;;;;;;4802981;29;20059;-80
2022/06/06 14:24:54;;;;;;;1.85;1.10;;;;;;;;;;4804318;29;20125;-80
2022/06/06 14:27:22;;;;;;;1.42;1.02;;;;;;;;;;4790414;29;20070;-81
2022/06/06 14:30:00;;;;;;;3.03;1.23;;;;;;;;;;4800482;29;20059;-81
2022/06/06 14:32:31;;;;;;;4.40;1.40;;;;;;;;;;4803175;29;20061;-80
2022/06/06 14:34:58;;;;;;;13.32;12.27;;;;;;;;;;4802314;29;20051;-80
2022/06/06 14:37:28;;;;;;;2.03;1.90;;;;;;;;;;4817741;29;20404;-80
2022/06/06 14:39:57;;;;;;;1.70;1.17;;;;;;;;;;4803629;29;20066;-81
2022/06/06 14:42:34;;;;;;;1.83;1.13;;;;;;;;;;4802730;29;20138;-81
2022/06/06 14:45:04;;;;;;;1.73;1.17;;;;;;;;;;4803541;29;20058;-79
2022/06/06 14:47:32;;;;;;;1.27;1.10;;;;;;;;;;4802434;29;20062;-80
2022/06/06 14:53:10;;;;;;;4.53;1.30;;;;;;;;;;4803422;29;20061;-80
2022/06/06 14:55:38;;;;;;;2.75;1.25;;;;;;;;;;4801838;29;20057;-79
2022/06/06 14:58:09;;;;;;;1.73;1.30;;;;;;;;;;4799840;29;20047;-80
2022/06/06 15:00:39;;;;;;;3.40;1.40;;;;;;;;;;4819963;29;20395;-80
2022/06/06 15:03:09;;;;;;;1.60;1.30;;;;;;;;;;4818319;29;20053;-81
2022/06/06 15:05:37;;;;;;;2.15;1.20;;;;;;;;;;4817845;29;20064;-80
2022/06/06 15:08:20;;;;;;;2.70;1.20;;;;;;;;;;4803055;29;20050;-80
2022/06/06 15:10:52;;;;;;;1.40;1.30;;;;;;;;;;4819542;29;20046;-80
2022/06/06 15:13:22;;;;;;;2.70;1.23;;;;;;;;;;4800873;29;20515;-80
2022/06/06 15:15:52;;;;;;;2.35;1.08;;;;;;;;;;4792239;29;20043;-80
2022/06/06 15:18:39;;;;;;;2.10;1.40;;;;;;;;;;4797338;29;20573;-79
2022/06/06 15:21:07;;;;;;;2.25;1.60;;;;;;;;;;4783842;29;20146;-80
2022/06/06 15:23:42;;;;;;;1.58;1.33;;;;;;;;;;4794223;29;20039;-80
2022/06/06 15:26:17;;;;;;;2.88;1.30;;;;;;;;;;4784905;29;20457;-80
2022/06/06 15:29:05;;;;;;;2.15;1.40;;;;;;;;;;4801887;29;20055;-79
2022/06/06 15:31:51;;;;;;;1.40;1.30;;;;;;;;;;4805813;29;20095;-80
2022/06/06 15:34:29;;;;;;;1.83;1.52;;;;;;;;;;4799537;29;20050;-79
2022/06/06 15:37:06;;;;;;;1.10;1.10;;;;;;;;;;4785729;29;20081;-80
2022/06/06 15:39:40;;;;;;;2.20;1.30;;;;;;;;;;4784611;29;20100;-79
2022/06/06 15:42:14;;;;;;;1.50;1.40;;;;;;;;;;4800104;29;20051;-80
2022/06/06 15:44:59;;;;;;;2.40;1.30;;;;;;;;;;4800138;29;20080;-80
2022/06/06 15:47:33;;;;;;;3.72;1.45;;;;;;;;;;4801333;29;20507;-80
2022/06/06 15:50:01;;;;;;;1.75;1.40;;;;;;;;;;4779101;29;20482;-79
2022/06/06 15:52:34;;;;;;;1.50;1.23;;;;;;;;;;4782742;30;20043;-80
2022/06/06 15:55:07;;;;;;;1.52;1.40;;;;;;;;;;4786352;29;20059;-79
2022/06/06 15:57:44;;;;;;;1.33;1.20;;;;;;;;;;4810009;29;20103;-80
2022/06/06 16:00:37;;;;;;;1.33;1.27;;;;;;;;;;4808017;29;20547;-80
2022/06/06 16:03:17;;;;;;;1.98;1.30;;;;;;;;;;4808374;29;20039;-80
2022/06/06 16:05:47;;;;;;;1.88;1.38;;;;;;;;;;4805320;29;20054;-80
2022/06/06 16:08:20;;;;;;;4.22;1.50;;;;;;;;;;4800455;29;20082;-80
2022/06/06 16:10:51;;;;;;;2.97;1.27;;;;;;;;;;4799286;29;20112;-80
2022/06/06 16:13:30;;;;;;;1.50;1.40;;;;;;;;;;4774437;29;20054;-80